sensor_id;sensor_type;location;lat;lon;timestamp;pressure;altitude;pressure_sealevel;temperature;humidity
18436;BME280;9346;52.006;4.720;2022-07-21T00:01:53;101600.38;;;21.88;100.00
18436;BME280;9346;52.006;4.720;2022-07-21T00:04:21;101597.09;;;21.78;100.00
18436;BME280;9346;52.006;4.720;2022-07-21T00:06:51;101588.19;;;21.67;100.00
18436;BME280;9346;52.006;4.720;2022-07-21T00:09:19;101593.94;;;21.62;100.00
18436;BME280;9346;52.006;4.720;2022-07-21T00:11:46;101593.94;;;21.62;100.00
18436;BME280;9346;52.006;4.720;2022-07-21T00:14:14;101586.38;;;21.63;100.00
18436;BME280;9346;52.006;4.720;2022-07-21T00:16:43;101592.13;;;21.66;100.00
18436;BME280;9346;52.006;4.720;2022-07-21T00:19:10;101580.75;;;21.71;100.00
18436;BME280;9346;52.006;4.720;2022-07-21T00:21:38;101579.59;;;21.72;100.00
18436;BME280;9346;52.006;4.720;2022-07-21T00:24:10;101580.75;;;21.71;100.00
18436;BME280;9346;52.006;4.720;2022-07-21T00:26:37;101579.44;;;21.69;100.00
18436;BME280;9346;52.006;4.720;2022-07-21T00:29:05;101578.59;;;21.68;100.00
18436;BME280;9346;52.006;4.720;2022-07-21T00:31:33;101577.78;;;21.68;100.00
18436;BME280;9346;52.006;4.720;2022-07-21T00:34:00;101572.66;;;21.70;100.00
18436;BME280;9346;52.006;4.720;2022-07-21T00:36:28;101568.06;;;21.74;100.00
18436;BME280;9346;52.006;4.720;2022-07-21T00:38:55;101573.97;;;21.72;100.00
18436;BME280;9346;52.006;4.720;2022-07-21T00:41:25;101573.47;;;21.70;100.00
18436;BME280;9346;52.006;4.720;2022-07-21T00:43:52;101584.88;;;21.65;100.00
18436;BME280;9346;52.006;4.720;2022-07-21T00:46:20;101577.94;;;21.63;100.00
18436;BME280;9346;52.006;4.720;2022-07-21T00:48:47;101586.69;;;21.61;100.00
18436;BME280;9346;52.006;4.720;2022-07-21T00:51:15;101586.19;;;21.51;100.00
18436;BME280;9346;52.006;4.720;2022-07-21T00:53:42;101591.28;;;21.40;100.00
18436;BME280;9346;52.006;4.720;2022-07-21T00:56:10;101591.63;;;21.30;100.00
18436;BME280;9346;52.006;4.720;2022-07-21T00:58:41;101598.19;;;21.26;100.00
18436;BME280;9346;52.006;4.720;2022-07-21T01:01:08;101600.84;;;21.22;100.00
18436;BME280;9346;52.006;4.720;2022-07-21T01:03:36;101595.06;;;21.19;100.00
18436;BME280;9346;52.006;4.720;2022-07-21T01:06:03;101586.66;;;21.19;100.00
18436;BME280;9346;52.006;4.720;2022-07-21T01:08:31;101584.03;;;21.22;100.00
18436;BME280;9346;52.006;4.720;2022-07-21T01:10:58;101577.59;;;21.30;100.00
18436;BME280;9346;52.006;4.720;2022-07-21T01:13:26;101570.69;;;21.36;100.00
18436;BME280;9346;52.006;4.720;2022-07-21T01:15:56;101573.66;;;21.40;100.00
18436;BME280;9346;52.006;4.720;2022-07-21T01:18:24;101582.41;;;21.38;100.00
18436;BME280;9346;52.006;4.720;2022-07-21T01:20:53;101589.78;;;21.34;100.00
18436;BME280;9346;52.006;4.720;2022-07-21T01:23:23;101571.50;;;21.28;100.00
18436;BME280;9346;52.006;4.720;2022-07-21T01:25:51;101564.25;;;21.27;100.00
18436;BME280;9346;52.006;4.720;2022-07-21T01:28:19;101551.06;;;21.28;100.00
18436;BME280;9346;52.006;4.720;2022-07-21T01:30:46;101553.22;;;21.31;100.00
18436;BME280;9346;52.006;4.720;2022-07-21T01:33:13;101549.75;;;21.34;100.00
18436;BME280;9346;52.006;4.720;2022-07-21T01:35:41;101553.03;;;21.36;100.00
18436;BME280;9346;52.006;4.720;2022-07-21T01:38:09;101557.34;;;21.33;100.00
18436;BME280;9346;52.006;4.720;2022-07-21T01:40:57;101567.03;;;21.27;100.00
18436;BME280;9346;52.006;4.720;2022-07-21T01:43:41;101568.69;;;21.20;100.00
18436;BME280;9346;52.006;4.720;2022-07-21T01:46:10;101555.97;;;21.14;100.00
18436;BME280;9346;52.006;4.720;2022-07-21T01:48:41;101556.81;;;21.06;100.00
18436;BME280;9346;52.006;4.720;2022-07-21T01:51:08;101554.66;;;21.03;100.00
18436;BME280;9346;52.006;4.720;2022-07-21T01:53:36;101552.19;;;21.01;100.00
18436;BME280;9346;52.006;4.720;2022-07-21T01:56:06;101546.06;;;20.99;100.00
18436;BME280;9346;52.006;4.720;2022-07-21T01:58:34;101539.34;;;21.00;100.00
18436;BME280;9346;52.006;4.720;2022-07-21T02:01:01;101543.44;;;21.03;100.00
18436;BME280;9346;52.006;4.720;2022-07-21T02:03:29;101550.56;;;21.09;100.00
18436;BME280;9346;52.006;4.720;2022-07-21T02:06:00;101549.56;;;21.13;100.00
18436;BME280;9346;52.006;4.720;2022-07-21T02:08:27;101556.81;;;21.14;100.00
18436;BME280;9346;52.006;4.720;2022-07-21T02:10:56;101556.16;;;21.17;100.00
18436;BME280;9346;52.006;4.720;2022-07-21T02:13:25;101562.41;;;21.14;100.00
18436;BME280;9346;52.006;4.720;2022-07-21T02:15:53;101570.16;;;21.09;100.00
18436;BME280;9346;52.006;4.720;2022-07-21T02:18:21;101568.47;;;20.99;100.00
18436;BME280;9346;52.006;4.720;2022-07-21T02:20:48;101572.38;;;20.90;100.00
18436;BME280;9346;52.006;4.720;2022-07-21T02:23:15;101580.44;;;20.83;100.00
18436;BME280;9346;52.006;4.720;2022-07-21T02:25:43;101573.03;;;20.78;100.00
18436;BME280;9346;52.006;4.720;2022-07-21T02:28:11;101577.47;;;20.79;100.00
18436;BME280;9346;52.006;4.720;2022-07-21T02:30:41;101576.66;;;20.79;100.00
18436;BME280;9346;52.006;4.720;2022-07-21T02:33:08;101570.72;;;20.80;100.00
18436;BME280;9346;52.006;4.720;2022-07-21T02:35:35;101550.44;;;20.83;100.00
18436;BME280;9346;52.006;4.720;2022-07-21T02:38:03;101560.84;;;20.83;100.00
18436;BME280;9346;52.006;4.720;2022-07-21T02:40:31;101551.78;;;20.77;100.00
18436;BME280;9346;52.006;4.720;2022-07-21T02:42:58;101566.09;;;20.76;100.00
18436;BME280;9346;52.006;4.720;2022-07-21T02:45:26;101550.09;;;20.76;100.00
18436;BME280;9346;52.006;4.720;2022-07-21T02:47:57;101546.84;;;20.74;100.00
18436;BME280;9346;52.006;4.720;2022-07-21T02:50:27;101552.59;;;20.78;100.00
18436;BME280;9346;52.006;4.720;2022-07-21T02:52:54;101558.84;;;20.75;100.00
18436;BME280;9346;52.006;4.720;2022-07-21T02:55:22;101567.56;;;20.73;100.00
18436;BME280;9346;52.006;4.720;2022-07-21T02:58:02;101558.34;;;20.73;100.00
18436;BME280;9346;52.006;4.720;2022-07-21T03:00:30;101556.03;;;20.75;100.00
18436;BME280;9346;52.006;4.720;2022-07-21T03:03:00;101553.88;;;20.72;100.00
18436;BME280;9346;52.006;4.720;2022-07-21T03:05:29;101555.88;;;20.71;100.00
18436;BME280;9346;52.006;4.720;2022-07-21T03:07:56;101555.69;;;20.68;100.00
18436;BME280;9346;52.006;4.720;2022-07-21T03:10:24;101569.19;;;20.66;100.00
18436;BME280;9346;52.006;4.720;2022-07-21T03:12:51;101563.09;;;20.64;100.00
18436;BME280;9346;52.006;4.720;2022-07-21T03:15:19;101560.09;;;20.60;100.00
18436;BME280;9346;52.006;4.720;2022-07-21T03:17:47;101558.47;;;20.59;100.00
18436;BME280;9346;52.006;4.720;2022-07-21T03:20:17;101559.63;;;20.58;100.00
18436;BME280;9346;52.006;4.720;2022-07-21T03:22:44;101551.69;;;20.60;100.00
18436;BME280;9346;52.006;4.720;2022-07-21T03:25:11;101557.81;;;20.62;100.00
18436;BME280;9346;52.006;4.720;2022-07-21T03:27:38;101558.31;;;20.64;100.00
18436;BME280;9346;52.006;4.720;2022-07-21T03:30:07;101553.84;;;20.63;100.00
18436;BME280;9346;52.006;4.720;2022-07-21T03:32:35;101552.72;;;20.64;100.00
18436;BME280;9346;52.006;4.720;2022-07-21T03:35:04;101562.25;;;20.63;100.00
18436;BME280;9346;52.006;4.720;2022-07-21T03:37:40;101564.06;;;20.59;100.00
18436;BME280;9346;52.006;4.720;2022-07-21T03:40:09;101561.91;;;20.56;100.00
18436;BME280;9346;52.006;4.720;2022-07-21T03:42:37;101570.13;;;20.53;100.00
18436;BME280;9346;52.006;4.720;2022-07-21T03:45:05;101565.50;;;20.48;100.00
18436;BME280;9346;52.006;4.720;2022-07-21T03:47:33;101565.84;;;20.47;100.00
18436;BME280;9346;52.006;4.720;2022-07-21T03:50:01;101570.59;;;20.46;100.00
18436;BME280;9346;52.006;4.720;2022-07-21T03:52:29;101573.19;;;20.43;100.00
18436;BME280;9346;52.006;4.720;2022-07-21T03:54:59;101582.75;;;20.42;100.00
18436;BME280;9346;52.006;4.720;2022-07-21T03:57:36;101591.47;;;20.40;100.00
18436;BME280;9346;52.006;4.720;2022-07-21T04:00:06;101589.31;;;20.37;100.00
18436;BME280;9346;52.006;4.720;2022-07-21T04:02:34;101595.53;;;20.34;100.00
18436;BME280;9346;52.006;4.720;2022-07-21T04:05:02;101594.75;;;20.34;100.00
18436;BME280;9346;52.006;4.720;2022-07-21T04:07:30;101595.88;;;20.33;100.00
18436;BME280;9346;52.006;4.720;2022-07-21T04:09:59;101601.78;;;20.31;100.00
18436;BME280;9346;52.006;4.720;2022-07-21T04:12:26;101598.19;;;20.31;100.00
18436;BME280;9346;52.006;4.720;2022-07-21T04:14:54;101598.97;;;20.31;100.00
18436;BME280;9346;52.006;4.720;2022-07-21T04:17:21;101610.16;;;20.31;100.00
18436;BME280;9346;52.006;4.720;2022-07-21T04:19:49;101598.19;;;20.31;100.00
18436;BME280;9346;52.006;4.720;2022-07-21T04:22:16;101598.50;;;20.29;100.00
18436;BME280;9346;52.006;4.720;2022-07-21T04:24:44;101592.91;;;20.29;100.00
18436;BME280;9346;52.006;4.720;2022-07-21T04:27:13;101607.69;;;20.30;100.00
18436;BME280;9346;52.006;4.720;2022-07-21T04:29:41;101590.09;;;20.29;100.00
18436;BME280;9346;52.006;4.720;2022-07-21T04:32:09;101590.28;;;20.33;100.00
18436;BME280;9346;52.006;4.720;2022-07-21T04:34:36;101594.09;;;20.37;100.00
18436;BME280;9346;52.006;4.720;2022-07-21T04:37:04;101588.16;;;20.38;100.00
18436;BME280;9346;52.006;4.720;2022-07-21T04:39:32;101599.03;;;20.40;100.00
18436;BME280;9346;52.006;4.720;2022-07-21T04:41:59;101595.09;;;20.41;100.00
18436;BME280;9346;52.006;4.720;2022-07-21T04:44:28;101596.75;;;20.42;100.00
18436;BME280;9346;52.006;4.720;2022-07-21T04:46:56;101601.19;;;20.43;100.00
18436;BME280;9346;52.006;4.720;2022-07-21T04:49:24;101592.47;;;20.44;100.00
18436;BME280;9346;52.006;4.720;2022-07-21T04:51:52;101599.22;;;20.43;100.00
18436;BME280;9346;52.006;4.720;2022-07-21T04:54:19;101601.66;;;20.36;100.00
18436;BME280;9346;52.006;4.720;2022-07-21T04:56:47;101607.25;;;20.36;100.00
18436;BME280;9346;52.006;4.720;2022-07-21T04:59:14;101603.94;;;20.34;100.00
18436;BME280;9346;52.006;4.720;2022-07-21T05:01:44;101605.09;;;20.33;100.00
18436;BME280;9346;52.006;4.720;2022-07-21T05:04:11;101599.81;;;20.32;100.00
18436;BME280;9346;52.006;4.720;2022-07-21T05:06:39;101609.38;;;20.31;100.00
18436;BME280;9346;52.006;4.720;2022-07-21T05:09:06;101600.97;;;20.31;100.00
18436;BME280;9346;52.006;4.720;2022-07-21T05:11:34;101601.47;;;20.33;100.00
18436;BME280;9346;52.006;4.720;2022-07-21T05:14:02;101603.13;;;20.34;100.00
18436;BME280;9346;52.006;4.720;2022-07-21T05:16:30;101602.50;;;20.37;100.00
18436;BME280;9346;52.006;4.720;2022-07-21T05:19:00;101602.66;;;20.40;100.00
18436;BME280;9346;52.006;4.720;2022-07-21T05:21:27;101596.09;;;20.45;100.00
18436;BME280;9346;52.006;4.720;2022-07-21T05:23:54;101590.50;;;20.45;100.00
18436;BME280;9346;52.006;4.720;2022-07-21T05:26:23;101587.91;;;20.48;100.00
18436;BME280;9346;52.006;4.720;2022-07-21T05:28:50;101589.53;;;20.49;100.00
18436;BME280;9346;52.006;4.720;2022-07-21T05:31:18;101584.25;;;20.48;100.00
18436;BME280;9346;52.006;4.720;2022-07-21T05:33:45;101586.88;;;20.44;100.00
18436;BME280;9346;52.006;4.720;2022-07-21T05:36:14;101584.59;;;20.46;100.00
18436;BME280;9346;52.006;4.720;2022-07-21T05:38:41;101577.03;;;20.47;100.00
18436;BME280;9346;52.006;4.720;2022-07-21T05:41:09;101582.31;;;20.48;100.00
18436;BME280;9346;52.006;4.720;2022-07-21T05:43:36;101581.13;;;20.49;100.00
18436;BME280;9346;52.006;4.720;2022-07-21T05:46:04;101578.16;;;20.46;100.00
18436;BME280;9346;52.006;4.720;2022-07-21T05:48:31;101577.16;;;20.42;100.00
18436;BME280;9346;52.006;4.720;2022-07-21T05:50:58;101584.22;;;20.39;100.00
18436;BME280;9346;52.006;4.720;2022-07-21T05:53:30;101583.06;;;20.40;100.00
18436;BME280;9346;52.006;4.720;2022-07-21T05:55:58;101588.03;;;20.43;100.00
18436;BME280;9346;52.006;4.720;2022-07-21T05:58:25;101590.19;;;20.46;100.00
18436;BME280;9346;52.006;4.720;2022-07-21T06:00:53;101596.78;;;20.50;100.00
18436;BME280;9346;52.006;4.720;2022-07-21T06:03:42;101592.84;;;20.51;100.00
18436;BME280;9346;52.006;4.720;2022-07-21T06:06:11;101589.06;;;20.56;100.00
18436;BME280;9346;52.006;4.720;2022-07-21T06:08:45;101595.50;;;20.56;100.00
18436;BME280;9346;52.006;4.720;2022-07-21T06:11:14;101587.09;;;20.56;100.00
18436;BME280;9346;52.006;4.720;2022-07-21T06:13:42;101592.88;;;20.60;100.00
18436;BME280;9346;52.006;4.720;2022-07-21T06:16:10;101599.47;;;20.64;100.00
18436;BME280;9346;52.006;4.720;2022-07-21T06:18:38;101590.75;;;20.65;100.00
18436;BME280;9346;52.006;4.720;2022-07-21T06:21:06;101594.56;;;20.69;100.00
18436;BME280;9346;52.006;4.720;2022-07-21T06:23:33;101593.91;;;20.72;100.00
18436;BME280;9346;52.006;4.720;2022-07-21T06:26:03;101594.22;;;20.71;100.00
18436;BME280;9346;52.006;4.720;2022-07-21T06:28:31;101589.16;;;20.73;100.00
18436;BME280;9346;52.006;4.720;2022-07-21T06:30:59;101601.97;;;20.74;100.00
18436;BME280;9346;52.006;4.720;2022-07-21T06:33:26;101600.50;;;20.76;100.00
18436;BME280;9346;52.006;4.720;2022-07-21T06:35:54;101596.56;;;20.77;100.00
18436;BME280;9346;52.006;4.720;2022-07-21T06:38:22;101595.75;;;20.77;100.00
18436;BME280;9346;52.006;4.720;2022-07-21T06:40:49;101593.94;;;20.81;100.00
18436;BME280;9346;52.006;4.720;2022-07-21T06:43:19;101600.03;;;20.83;100.00
18436;BME280;9346;52.006;4.720;2022-07-21T06:45:46;101605.81;;;20.86;100.00
18436;BME280;9346;52.006;4.720;2022-07-21T06:48:14;101601.03;;;20.87;100.00
18436;BME280;9346;52.006;4.720;2022-07-21T06:50:41;101589.84;;;20.87;100.00
18436;BME280;9346;52.006;4.720;2022-07-21T06:53:09;101595.94;;;20.89;100.00
18436;BME280;9346;52.006;4.720;2022-07-21T06:55:36;101603.50;;;20.88;100.00
18436;BME280;9346;52.006;4.720;2022-07-21T06:58:11;101600.38;;;20.90;100.00
18436;BME280;9346;52.006;4.720;2022-07-21T07:00:41;101609.94;;;20.89;100.00
18436;BME280;9346;52.006;4.720;2022-07-21T07:03:08;101617.19;;;20.90;100.00
18436;BME280;9346;52.006;4.720;2022-07-21T07:05:36;101616.53;;;20.84;100.00
18436;BME280;9346;52.006;4.720;2022-07-21T07:08:05;101625.25;;;20.83;100.00
18436;BME280;9346;52.006;4.720;2022-07-21T07:10:32;101619.66;;;20.83;100.00
18436;BME280;9346;52.006;4.720;2022-07-21T07:13:00;101634.44;;;20.83;100.00
18436;BME280;9346;52.006;4.720;2022-07-21T07:15:28;101627.22;;;20.82;100.00
18436;BME280;9346;52.006;4.720;2022-07-21T07:17:57;101638.25;;;20.79;100.00
18436;BME280;9346;52.006;4.720;2022-07-21T07:20:25;101631.81;;;20.78;100.00
18436;BME280;9346;52.006;4.720;2022-07-21T07:27:11;101635.94;;;20.81;100.00
18436;BME280;9346;52.006;4.720;2022-07-21T07:29:57;101637.41;;;20.78;100.00
18436;BME280;9346;52.006;4.720;2022-07-21T07:32:25;101641.38;;;20.77;100.00
18436;BME280;9346;52.006;4.720;2022-07-21T07:34:55;101636.56;;;20.78;100.00
18436;BME280;9346;52.006;4.720;2022-07-21T07:37:27;101634.63;;;20.78;100.00
18436;BME280;9346;52.006;4.720;2022-07-21T07:40:05;101633.78;;;20.78;100.00
18436;BME280;9346;52.006;4.720;2022-07-21T07:43:15;101633.47;;;20.79;100.00
18436;BME280;9346;52.006;4.720;2022-07-21T07:45:56;101636.56;;;20.78;100.00
18436;BME280;9346;52.006;4.720;2022-07-21T07:48:26;101634.94;;;20.77;100.00
18436;BME280;9346;52.006;4.720;2022-07-21T07:50:58;101634.75;;;20.73;100.00
18436;BME280;9346;52.006;4.720;2022-07-21T07:53:28;101635.59;;;20.74;100.00
18436;BME280;9346;52.006;4.720;2022-07-21T07:55:55;101644.81;;;20.74;100.00
18436;BME280;9346;52.006;4.720;2022-07-21T07:58:22;101642.00;;;20.74;100.00
18436;BME280;9346;52.006;4.720;2022-07-21T08:00:53;101642.00;;;20.74;100.00
18436;BME280;9346;52.006;4.720;2022-07-21T08:03:36;101654.34;;;20.73;100.00
18436;BME280;9346;52.006;4.720;2022-07-21T08:20:16;101665.81;;;20.63;100.00
18436;BME280;9346;52.006;4.720;2022-07-21T08:22:44;101669.91;;;20.57;100.00
18436;BME280;9346;52.006;4.720;2022-07-21T08:25:11;101670.38;;;20.51;100.00
18436;BME280;9346;52.006;4.720;2022-07-21T08:27:38;101679.22;;;20.44;100.00
18436;BME280;9346;52.006;4.720;2022-07-21T08:30:10;101674.56;;;20.40;100.00
18436;BME280;9346;52.006;4.720;2022-07-21T08:39:02;101676.63;;;20.48;100.00
18436;BME280;9346;52.006;4.720;2022-07-21T08:41:31;101676.09;;;20.46;100.00
18436;BME280;9346;52.006;4.720;2022-07-21T08:43:58;101676.41;;;20.44;100.00
18436;BME280;9346;52.006;4.720;2022-07-21T08:46:28;101673.25;;;20.37;100.00
18436;BME280;9346;52.006;4.720;2022-07-21T08:48:57;101677.31;;;20.31;100.00
18436;BME280;9346;52.006;4.720;2022-07-21T08:51:32;101684.91;;;20.31;100.00
18436;BME280;9346;52.006;4.720;2022-07-21T08:54:04;101691.00;;;20.33;100.00
18436;BME280;9346;52.006;4.720;2022-07-21T08:56:36;101694.00;;;20.36;100.00
18436;BME280;9346;52.006;4.720;2022-07-21T08:59:08;101694.47;;;20.38;100.00
18436;BME280;9346;52.006;4.720;2022-07-21T09:01:42;101688.72;;;20.35;100.00
18436;BME280;9346;52.006;4.720;2022-07-21T09:04:23;101692.34;;;20.35;100.00
18436;BME280;9346;52.006;4.720;2022-07-21T09:06:55;101689.53;;;20.35;100.00
18436;BME280;9346;52.006;4.720;2022-07-21T09:09:23;101698.25;;;20.34;100.00
18436;BME280;9346;52.006;4.720;2022-07-21T09:11:51;101699.53;;;20.28;100.00
18436;BME280;9346;52.006;4.720;2022-07-21T09:14:21;101699.97;;;20.21;100.00
18436;BME280;9346;52.006;4.720;2022-07-21T09:16:53;101703.53;;;20.13;100.00
18436;BME280;9346;52.006;4.720;2022-07-21T09:19:25;101704.56;;;20.04;100.00
18436;BME280;9346;52.006;4.720;2022-07-21T09:21:54;101705.00;;;19.97;100.00
18436;BME280;9346;52.006;4.720;2022-07-21T09:24:24;101714.03;;;19.94;100.00
18436;BME280;9346;52.006;4.720;2022-07-21T09:27:02;101711.22;;;19.94;100.00
18436;BME280;9346;52.006;4.720;2022-07-21T09:29:35;101716.19;;;19.97;100.00
18436;BME280;9346;52.006;4.720;2022-07-21T09:32:20;101715.56;;;20.00;100.00
18436;BME280;9346;52.006;4.720;2022-07-21T09:34:49;101723.00;;;20.05;100.00
18436;BME280;9346;52.006;4.720;2022-07-21T09:37:18;101718.75;;;20.07;100.00
18436;BME280;9346;52.006;4.720;2022-07-21T09:39:48;101715.63;;;20.09;100.00
18436;BME280;9346;52.006;4.720;2022-07-21T09:42:19;101718.13;;;20.10;100.00
18436;BME280;9346;52.006;4.720;2022-07-21T09:44:48;101720.50;;;20.17;100.00
18436;BME280;9346;52.006;4.720;2022-07-21T09:47:22;101720.16;;;20.18;100.00
18436;BME280;9346;52.006;4.720;2022-07-21T09:49:50;101719.69;;;20.16;100.00
18436;BME280;9346;52.006;4.720;2022-07-21T09:52:20;101719.69;;;20.16;100.00
18436;BME280;9346;52.006;4.720;2022-07-21T09:54:47;101728.06;;;20.16;100.00
18436;BME280;9346;52.006;4.720;2022-07-21T09:57:17;101729.94;;;20.21;100.00
18436;BME280;9346;52.006;4.720;2022-07-21T09:59:45;101724.50;;;20.24;100.00
18436;BME280;9346;52.006;4.720;2022-07-21T10:02:18;101729.59;;;20.22;100.00
18436;BME280;9346;52.006;4.720;2022-07-21T10:04:48;101726.81;;;20.22;100.00
18436;BME280;9346;52.006;4.720;2022-07-21T10:07:17;101722.97;;;20.18;100.00
18436;BME280;9346;52.006;4.720;2022-07-21T10:09:45;101727.56;;;20.14;100.00
18436;BME280;9346;52.006;4.720;2022-07-21T10:12:14;101732.31;;;20.14;100.00
18436;BME280;9346;52.006;4.720;2022-07-21T10:14:41;101731.50;;;20.13;100.00
18436;BME280;9346;52.006;4.720;2022-07-21T10:17:09;101735.41;;;20.12;100.00
18436;BME280;9346;52.006;4.720;2022-07-21T10:19:44;101732.09;;;20.10;100.00
18436;BME280;9346;52.006;4.720;2022-07-21T10:22:20;101734.06;;;20.10;100.00
18436;BME280;9346;52.006;4.720;2022-07-21T10:24:51;101735.72;;;20.11;100.00
18436;BME280;9346;52.006;4.720;2022-07-21T10:27:19;101738.22;;;20.12;100.00
18436;BME280;9346;52.006;4.720;2022-07-21T10:29:57;101743.19;;;20.15;100.00
18436;BME280;9346;52.006;4.720;2022-07-21T10:32:28;101744.84;;;20.16;100.00
18436;BME280;9346;52.006;4.720;2022-07-21T10:35:00;101746.81;;;20.16;100.00
18436;BME280;9346;52.006;4.720;2022-07-21T10:37:46;101749.94;;;20.14;100.00
18436;BME280;9346;52.006;4.720;2022-07-21T10:40:34;101749.94;;;20.14;100.00
18436;BME280;9346;52.006;4.720;2022-07-21T10:43:40;101748.59;;;20.12;100.00
18436;BME280;9346;52.006;4.720;2022-07-21T10:46:33;101755.28;;;20.11;100.00
18436;BME280;9346;52.006;4.720;2022-07-21T10:49:03;101753.63;;;20.10;100.00
18436;BME280;9346;52.006;4.720;2022-07-21T10:51:34;101756.75;;;20.08;100.00
18436;BME280;9346;52.006;4.720;2022-07-21T10:54:22;101761.84;;;20.06;100.00
18436;BME280;9346;52.006;4.720;2022-07-21T10:57:28;101764.97;;;20.05;100.00
18436;BME280;9346;52.006;4.720;2022-07-21T11:00:24;101772.19;;;20.06;100.00
18436;BME280;9346;52.006;4.720;2022-07-21T11:02:55;101772.84;;;20.03;100.00
18436;BME280;9346;52.006;4.720;2022-07-21T11:05:24;101769.19;;;20.02;100.00
18436;BME280;9346;52.006;4.720;2022-07-21T11:08:12;101776.47;;;20.03;100.00
18436;BME280;9346;52.006;4.720;2022-07-21T11:10:41;101775.31;;;20.04;100.00
18436;BME280;9346;52.006;4.720;2022-07-21T11:13:10;101775.63;;;20.03;100.00
18436;BME280;9346;52.006;4.720;2022-07-21T11:15:53;101783.06;;;20.07;100.00
18436;BME280;9346;52.006;4.720;2022-07-21T11:18:22;101782.16;;;20.12;100.00
18436;BME280;9346;52.006;4.720;2022-07-21T11:21:05;101781.00;;;20.13;100.00
18436;BME280;9346;52.006;4.720;2022-07-21T11:23:42;101780.59;;;20.06;100.00
18436;BME280;9346;52.006;4.720;2022-07-21T11:26:15;101781.63;;;19.96;100.00
18436;BME280;9346;52.006;4.720;2022-07-21T11:29:07;101792.75;;;19.87;100.00
18436;BME280;9346;52.006;4.720;2022-07-21T11:31:47;101800.31;;;19.87;100.00
18436;BME280;9346;52.006;4.720;2022-07-21T11:34:36;101802.81;;;19.88;100.00
18436;BME280;9346;52.006;4.720;2022-07-21T11:37:08;101801.66;;;19.89;100.00
18436;BME280;9346;52.006;4.720;2022-07-21T11:39:38;101797.69;;;19.90;100.00
18436;BME280;9346;52.006;4.720;2022-07-21T11:42:08;101800.81;;;19.89;100.00
18436;BME280;9346;52.006;4.720;2022-07-21T11:44:37;101797.22;;;19.88;100.00
18436;BME280;9346;52.006;4.720;2022-07-21T11:47:06;101802.19;;;19.92;100.00
18436;BME280;9346;52.006;4.720;2022-07-21T11:49:34;101799.88;;;19.93;100.00
18436;BME280;9346;52.006;4.720;2022-07-21T11:52:04;101803.50;;;19.94;100.00
18436;BME280;9346;52.006;4.720;2022-07-21T11:54:33;101799.06;;;19.93;100.00
18436;BME280;9346;52.006;4.720;2022-07-21T11:57:17;101798.84;;;19.89;100.00
18436;BME280;9346;52.006;4.720;2022-07-21T12:03:35;101796.38;;;19.88;100.00
18436;BME280;9346;52.006;4.720;2022-07-21T12:06:30;101800.00;;;19.88;100.00
18436;BME280;9346;52.006;4.720;2022-07-21T12:09:32;101804.13;;;19.91;100.00
18436;BME280;9346;52.006;4.720;2022-07-21T12:12:27;101804.66;;;19.93;100.00
18436;BME280;9346;52.006;4.720;2022-07-21T12:15:09;101810.03;;;19.89;100.00
18436;BME280;9346;52.006;4.720;2022-07-21T12:17:47;101809.19;;;19.89;100.00
18436;BME280;9346;52.006;4.720;2022-07-21T12:20:26;101806.94;;;19.91;100.00
18436;BME280;9346;52.006;4.720;2022-07-21T12:23:27;101807.03;;;19.86;100.00
18436;BME280;9346;52.006;4.720;2022-07-21T12:26:22;101817.72;;;19.84;100.00
18436;BME280;9346;52.006;4.720;2022-07-21T12:29:28;101817.50;;;19.80;100.00
18436;BME280;9346;52.006;4.720;2022-07-21T12:35:25;101823.53;;;19.74;100.00
18436;BME280;9346;52.006;4.720;2022-07-21T12:37:56;101821.44;;;19.66;100.00
18436;BME280;9346;52.006;4.720;2022-07-21T12:40:25;101823.75;;;19.64;100.00
18436;BME280;9346;52.006;4.720;2022-07-21T12:43:06;101836.25;;;19.66;100.00
18436;BME280;9346;52.006;4.720;2022-07-21T12:45:57;101825.88;;;19.67;100.00
18436;BME280;9346;52.006;4.720;2022-07-21T12:48:26;101817.94;;;19.60;100.00
18436;BME280;9346;52.006;4.720;2022-07-21T12:50:58;101828.09;;;19.56;100.00
18436;BME280;9346;52.006;4.720;2022-07-21T12:53:27;101835.31;;;19.57;100.00
18436;BME280;9346;52.006;4.720;2022-07-21T12:55:55;101837.19;;;19.62;100.00
18436;BME280;9346;52.006;4.720;2022-07-21T12:58:23;101838.34;;;19.61;100.00
18436;BME280;9346;52.006;4.720;2022-07-21T13:00:53;101830.56;;;19.58;100.00
18436;BME280;9346;52.006;4.720;2022-07-21T13:03:23;101836.34;;;19.61;100.00
18436;BME280;9346;52.006;4.720;2022-07-21T13:05:50;101836.88;;;19.63;100.00
18436;BME280;9346;52.006;4.720;2022-07-21T13:08:18;101838.03;;;19.62;100.00
18436;BME280;9346;52.006;4.720;2022-07-21T13:10:46;101840.81;;;19.62;100.00
18436;BME280;9346;52.006;4.720;2022-07-21T13:13:14;101834.41;;;19.62;100.00
18436;BME280;9346;52.006;4.720;2022-07-21T13:15:41;101839.47;;;19.60;100.00
18436;BME280;9346;52.006;4.720;2022-07-21T13:18:11;101848.16;;;19.58;100.00
18436;BME280;9346;52.006;4.720;2022-07-21T13:20:40;101845.34;;;19.58;100.00
18436;BME280;9346;52.006;4.720;2022-07-21T13:23:09;101852.94;;;19.58;100.00
18436;BME280;9346;52.006;4.720;2022-07-21T13:25:36;101858.31;;;19.54;100.00
18436;BME280;9346;52.006;4.720;2022-07-21T13:28:04;101865.97;;;19.49;100.00
18436;BME280;9346;52.006;4.720;2022-07-21T13:30:31;101855.94;;;19.48;100.00
18436;BME280;9346;52.006;4.720;2022-07-21T13:32:59;101865.66;;;19.50;100.00
18436;BME280;9346;52.006;4.720;2022-07-21T13:35:29;101870.41;;;19.50;100.00
18436;BME280;9346;52.006;4.720;2022-07-21T13:37:57;101876.53;;;19.52;100.00
18436;BME280;9346;52.006;4.720;2022-07-21T13:40:26;101876.81;;;19.50;100.00
18436;BME280;9346;52.006;4.720;2022-07-21T13:42:54;101878.38;;;19.43;100.00